sensor_id;sensor_type;location;lat;lon;timestamp;P1;durP1;ratioP1;P2;durP2;ratioP2
52620;SDS011;38515;53.160;6.990;2023-03-14T00:01:46;24.10;;;9.57;;
52620;SDS011;38515;53.160;6.990;2023-03-14T00:04:12;25.58;;;8.68;;
52620;SDS011;38515;53.160;6.990;2023-03-14T00:06:38;25.02;;;10.40;;
52620;SDS011;38515;53.160;6.990;2023-03-14T00:09:04;29.45;;;10.68;;
52620;SDS011;38515;53.160;6.990;2023-03-14T00:11:29;33.78;;;11.18;;
52620;SDS011;38515;53.160;6.990;2023-03-14T00:13:56;27.77;;;10.15;;
52620;SDS011;38515;53.160;6.990;2023-03-14T00:16:22;24.48;;;9.27;;
52620;SDS011;38515;53.160;6.990;2023-03-14T00:18:47;29.50;;;10.10;;
52620;SDS011;38515;53.160;6.990;2023-03-14T00:21:14;25.58;;;9.77;;
52620;SDS011;38515;53.160;6.990;2023-03-14T00:23:40;25.52;;;12.20;;
52620;SDS011;38515;53.160;6.990;2023-03-14T00:26:11;100.32;;;95.82;;
52620;SDS011;38515;53.160;6.990;2023-03-14T00:28:39;24.35;;;10.32;;
52620;SDS011;38515;53.160;6.990;2023-03-14T00:31:06;26.23;;;10.32;;
52620;SDS011;38515;53.160;6.990;2023-03-14T00:33:34;24.55;;;10.48;;
52620;SDS011;38515;53.160;6.990;2023-03-14T00:36:02;18.20;;;9.45;;
52620;SDS011;38515;53.160;6.990;2023-03-14T00:38:31;18.27;;;8.75;;
52620;SDS011;38515;53.160;6.990;2023-03-14T00:40:57;24.15;;;11.38;;
52620;SDS011;38515;53.160;6.990;2023-03-14T00:43:24;26.67;;;12.23;;
52620;SDS011;38515;53.160;6.990;2023-03-14T00:45:50;19.95;;;10.63;;
52620;SDS011;38515;53.160;6.990;2023-03-14T00:48:17;15.65;;;10.75;;
52620;SDS011;38515;53.160;6.990;2023-03-14T00:50:44;18.73;;;10.18;;
52620;SDS011;38515;53.160;6.990;2023-03-14T00:53:11;19.48;;;10.57;;
52620;SDS011;38515;53.160;6.990;2023-03-14T00:55:37;20.90;;;10.32;;
52620;SDS011;38515;53.160;6.990;2023-03-14T00:58:04;19.83;;;7.95;;
52620;SDS011;38515;53.160;6.990;2023-03-14T01:00:30;24.85;;;9.43;;
52620;SDS011;38515;53.160;6.990;2023-03-14T01:02:56;29.10;;;9.13;;
52620;SDS011;38515;53.160;6.990;2023-03-14T01:05:22;19.70;;;8.05;;
52620;SDS011;38515;53.160;6.990;2023-03-14T01:07:49;29.65;;;9.45;;
52620;SDS011;38515;53.160;6.990;2023-03-14T01:10:15;21.73;;;9.43;;
52620;SDS011;38515;53.160;6.990;2023-03-14T01:12:41;24.13;;;10.52;;
52620;SDS011;38515;53.160;6.990;2023-03-14T01:15:07;20.90;;;8.52;;
52620;SDS011;38515;53.160;6.990;2023-03-14T01:17:34;23.10;;;8.90;;
52620;SDS011;38515;53.160;6.990;2023-03-14T01:20:03;22.95;;;10.25;;
52620;SDS011;38515;53.160;6.990;2023-03-14T01:22:31;19.95;;;9.07;;
52620;SDS011;38515;53.160;6.990;2023-03-14T01:24:57;25.38;;;10.68;;
52620;SDS011;38515;53.160;6.990;2023-03-14T01:27:22;20.33;;;10.55;;
52620;SDS011;38515;53.160;6.990;2023-03-14T01:29:48;18.52;;;10.40;;
52620;SDS011;38515;53.160;6.990;2023-03-14T01:32:14;17.50;;;10.05;;
52620;SDS011;38515;53.160;6.990;2023-03-14T01:34:40;25.13;;;11.18;;
52620;SDS011;38515;53.160;6.990;2023-03-14T01:37:06;18.08;;;10.75;;
52620;SDS011;38515;53.160;6.990;2023-03-14T01:39:33;14.77;;;9.52;;
52620;SDS011;38515;53.160;6.990;2023-03-14T01:41:59;18.95;;;10.93;;
52620;SDS011;38515;53.160;6.990;2023-03-14T01:44:26;19.20;;;9.23;;
52620;SDS011;38515;53.160;6.990;2023-03-14T01:46:52;17.45;;;9.20;;
52620;SDS011;38515;53.160;6.990;2023-03-14T01:49:27;16.10;;;8.90;;
52620;SDS011;38515;53.160;6.990;2023-03-14T01:52:01;18.27;;;9.73;;
52620;SDS011;38515;53.160;6.990;2023-03-14T01:54:37;13.18;;;7.53;;
52620;SDS011;38515;53.160;6.990;2023-03-14T01:59:42;15.80;;;9.13;;
52620;SDS011;38515;53.160;6.990;2023-03-14T02:02:13;20.98;;;10.10;;
52620;SDS011;38515;53.160;6.990;2023-03-14T02:04:40;17.45;;;10.30;;
52620;SDS011;38515;53.160;6.990;2023-03-14T02:09:48;25.23;;;10.18;;
52620;SDS011;38515;53.160;6.990;2023-03-14T02:12:16;24.52;;;9.65;;
52620;SDS011;38515;53.160;6.990;2023-03-14T02:14:43;21.65;;;8.38;;
52620;SDS011;38515;53.160;6.990;2023-03-14T02:17:13;22.38;;;9.05;;
52620;SDS011;38515;53.160;6.990;2023-03-14T02:22:30;18.00;;;9.15;;
52620;SDS011;38515;53.160;6.990;2023-03-14T02:27:50;17.88;;;8.20;;
52620;SDS011;38515;53.160;6.990;2023-03-14T02:30:20;17.35;;;8.15;;
52620;SDS011;38515;53.160;6.990;2023-03-14T02:32:52;18.17;;;8.98;;
52620;SDS011;38515;53.160;6.990;2023-03-14T02:35:45;16.42;;;8.75;;
52620;SDS011;38515;53.160;6.990;2023-03-14T02:38:29;18.60;;;7.97;;
52620;SDS011;38515;53.160;6.990;2023-03-14T02:41:01;19.98;;;7.43;;
52620;SDS011;38515;53.160;6.990;2023-03-14T02:43:27;17.50;;;7.28;;
52620;SDS011;38515;53.160;6.990;2023-03-14T02:45:53;15.90;;;7.32;;
52620;SDS011;38515;53.160;6.990;2023-03-14T02:50:54;20.50;;;7.72;;
52620;SDS011;38515;53.160;6.990;2023-03-14T02:53:24;10.48;;;6.82;;
52620;SDS011;38515;53.160;6.990;2023-03-14T02:55:55;12.45;;;6.95;;
52620;SDS011;38515;53.160;6.990;2023-03-14T02:58:21;13.50;;;5.90;;
52620;SDS011;38515;53.160;6.990;2023-03-14T03:00:47;10.45;;;6.15;;
52620;SDS011;38515;53.160;6.990;2023-03-14T03:03:13;13.63;;;6.70;;
52620;SDS011;38515;53.160;6.990;2023-03-14T03:05:39;13.85;;;5.82;;
52620;SDS011;38515;53.160;6.990;2023-03-14T03:08:08;17.13;;;6.50;;
52620;SDS011;38515;53.160;6.990;2023-03-14T03:10:35;19.27;;;6.47;;
52620;SDS011;38515;53.160;6.990;2023-03-14T03:13:01;12.48;;;6.43;;
52620;SDS011;38515;53.160;6.990;2023-03-14T03:15:27;13.55;;;6.63;;
52620;SDS011;38515;53.160;6.990;2023-03-14T03:17:53;13.40;;;6.47;;
52620;SDS011;38515;53.160;6.990;2023-03-14T03:20:19;12.75;;;7.10;;
52620;SDS011;38515;53.160;6.990;2023-03-14T03:22:45;11.07;;;6.22;;
52620;SDS011;38515;53.160;6.990;2023-03-14T03:25:11;20.48;;;7.68;;
52620;SDS011;38515;53.160;6.990;2023-03-14T03:27:37;12.55;;;6.43;;
52620;SDS011;38515;53.160;6.990;2023-03-14T03:30:04;14.07;;;7.75;;
52620;SDS011;38515;53.160;6.990;2023-03-14T03:32:31;21.95;;;8.02;;
52620;SDS011;38515;53.160;6.990;2023-03-14T03:34:57;18.83;;;7.78;;
52620;SDS011;38515;53.160;6.990;2023-03-14T03:37:23;22.23;;;10.40;;
52620;SDS011;38515;53.160;6.990;2023-03-14T03:39:50;19.88;;;8.45;;
52620;SDS011;38515;53.160;6.990;2023-03-14T03:42:16;21.92;;;9.90;;
52620;SDS011;38515;53.160;6.990;2023-03-14T03:44:43;15.10;;;9.20;;
52620;SDS011;38515;53.160;6.990;2023-03-14T03:47:09;12.77;;;7.80;;
52620;SDS011;38515;53.160;6.990;2023-03-14T03:49:35;19.13;;;8.55;;
52620;SDS011;38515;53.160;6.990;2023-03-14T03:52:00;17.02;;;8.02;;
52620;SDS011;38515;53.160;6.990;2023-03-14T03:54:26;12.30;;;9.25;;
52620;SDS011;38515;53.160;6.990;2023-03-14T03:56:53;19.27;;;10.77;;
52620;SDS011;38515;53.160;6.990;2023-03-14T03:59:20;14.02;;;11.10;;
52620;SDS011;38515;53.160;6.990;2023-03-14T04:01:46;14.40;;;11.05;;
52620;SDS011;38515;53.160;6.990;2023-03-14T04:04:12;12.65;;;10.88;;
52620;SDS011;38515;53.160;6.990;2023-03-14T04:06:38;15.95;;;10.45;;
52620;SDS011;38515;53.160;6.990;2023-03-14T04:09:05;17.92;;;10.48;;
52620;SDS011;38515;53.160;6.990;2023-03-14T04:11:31;14.20;;;10.18;;
52620;SDS011;38515;53.160;6.990;2023-03-14T04:13:57;14.57;;;9.50;;
52620;SDS011;38515;53.160;6.990;2023-03-14T04:16:23;15.48;;;9.25;;
52620;SDS011;38515;53.160;6.990;2023-03-14T04:18:50;14.65;;;8.48;;
52620;SDS011;38515;53.160;6.990;2023-03-14T04:21:17;14.80;;;8.02;;
52620;SDS011;38515;53.160;6.990;2023-03-14T04:23:43;16.15;;;9.20;;
52620;SDS011;38515;53.160;6.990;2023-03-14T04:26:09;22.60;;;15.00;;
52620;SDS011;38515;53.160;6.990;2023-03-14T04:28:35;14.90;;;10.05;;
52620;SDS011;38515;53.160;6.990;2023-03-14T04:31:12;32.50;;;29.85;;
52620;SDS011;38515;53.160;6.990;2023-03-14T04:33:41;18.17;;;16.38;;
52620;SDS011;38515;53.160;6.990;2023-03-14T04:36:07;19.50;;;11.10;;
52620;SDS011;38515;53.160;6.990;2023-03-14T04:38:33;15.35;;;10.43;;
52620;SDS011;38515;53.160;6.990;2023-03-14T04:41:00;39.45;;;36.08;;
52620;SDS011;38515;53.160;6.990;2023-03-14T04:43:26;23.70;;;9.73;;
52620;SDS011;38515;53.160;6.990;2023-03-14T04:45:56;21.80;;;19.92;;
52620;SDS011;38515;53.160;6.990;2023-03-14T04:48:23;16.05;;;9.60;;
52620;SDS011;38515;53.160;6.990;2023-03-14T04:50:50;17.98;;;9.48;;
52620;SDS011;38515;53.160;6.990;2023-03-14T04:53:16;19.20;;;9.07;;
52620;SDS011;38515;53.160;6.990;2023-03-14T04:55:47;14.55;;;8.82;;
52620;SDS011;38515;53.160;6.990;2023-03-14T04:58:14;14.25;;;9.50;;
52620;SDS011;38515;53.160;6.990;2023-03-14T05:00:40;12.63;;;8.35;;
52620;SDS011;38515;53.160;6.990;2023-03-14T05:03:06;18.35;;;8.50;;
52620;SDS011;38515;53.160;6.990;2023-03-14T05:05:32;14.20;;;8.10;;
52620;SDS011;38515;53.160;6.990;2023-03-14T05:07:58;14.27;;;8.02;;
52620;SDS011;38515;53.160;6.990;2023-03-14T05:10:24;20.05;;;8.52;;
52620;SDS011;38515;53.160;6.990;2023-03-14T05:12:50;18.00;;;8.25;;
52620;SDS011;38515;53.160;6.990;2023-03-14T05:15:16;12.75;;;8.05;;
52620;SDS011;38515;53.160;6.990;2023-03-14T05:17:42;11.55;;;7.38;;
52620;SDS011;38515;53.160;6.990;2023-03-14T05:20:08;12.38;;;7.43;;
52620;SDS011;38515;53.160;6.990;2023-03-14T05:22:38;14.10;;;7.45;;
52620;SDS011;38515;53.160;6.990;2023-03-14T05:25:04;11.10;;;7.72;;
52620;SDS011;38515;53.160;6.990;2023-03-14T05:27:31;10.80;;;7.80;;
52620;SDS011;38515;53.160;6.990;2023-03-14T05:29:57;13.68;;;7.50;;
52620;SDS011;38515;53.160;6.990;2023-03-14T05:32:23;13.68;;;7.90;;
52620;SDS011;38515;53.160;6.990;2023-03-14T05:34:49;15.25;;;7.20;;
52620;SDS011;38515;53.160;6.990;2023-03-14T05:37:15;18.10;;;8.48;;
52620;SDS011;38515;53.160;6.990;2023-03-14T05:39:41;14.55;;;8.45;;
52620;SDS011;38515;53.160;6.990;2023-03-14T05:42:07;13.65;;;8.55;;
52620;SDS011;38515;53.160;6.990;2023-03-14T05:44:32;13.25;;;8.50;;
52620;SDS011;38515;53.160;6.990;2023-03-14T05:46:58;13.98;;;8.90;;
52620;SDS011;38515;53.160;6.990;2023-03-14T05:49:24;18.67;;;10.68;;
52620;SDS011;38515;53.160;6.990;2023-03-14T05:51:50;14.25;;;9.27;;
52620;SDS011;38515;53.160;6.990;2023-03-14T05:54:16;12.35;;;9.07;;
52620;SDS011;38515;53.160;6.990;2023-03-14T05:56:42;21.25;;;8.60;;
52620;SDS011;38515;53.160;6.990;2023-03-14T05:59:08;19.95;;;10.90;;
52620;SDS011;38515;53.160;6.990;2023-03-14T06:01:35;17.40;;;10.73;;
52620;SDS011;38515;53.160;6.990;2023-03-14T06:04:00;15.15;;;9.75;;
52620;SDS011;38515;53.160;6.990;2023-03-14T06:06:26;16.73;;;10.25;;
52620;SDS011;38515;53.160;6.990;2023-03-14T06:08:52;11.95;;;10.05;;
52620;SDS011;38515;53.160;6.990;2023-03-14T06:11:18;31.67;;;29.75;;
52620;SDS011;38515;53.160;6.990;2023-03-14T06:13:44;14.13;;;9.65;;
52620;SDS011;38515;53.160;6.990;2023-03-14T06:16:11;17.05;;;10.27;;
52620;SDS011;38515;53.160;6.990;2023-03-14T06:18:38;21.38;;;10.43;;
52620;SDS011;38515;53.160;6.990;2023-03-14T06:21:03;19.75;;;10.45;;
52620;SDS011;38515;53.160;6.990;2023-03-14T06:23:30;14.65;;;9.60;;
52620;SDS011;38515;53.160;6.990;2023-03-14T06:25:57;16.20;;;10.02;;
52620;SDS011;38515;53.160;6.990;2023-03-14T06:28:23;18.92;;;9.88;;
52620;SDS011;38515;53.160;6.990;2023-03-14T06:30:48;11.70;;;8.82;;
52620;SDS011;38515;53.160;6.990;2023-03-14T06:33:14;17.23;;;9.32;;
52620;SDS011;38515;53.160;6.990;2023-03-14T06:35:40;11.95;;;9.25;;
52620;SDS011;38515;53.160;6.990;2023-03-14T06:38:06;15.38;;;9.10;;
52620;SDS011;38515;53.160;6.990;2023-03-14T06:40:32;13.00;;;8.77;;
52620;SDS011;38515;53.160;6.990;2023-03-14T06:42:58;11.43;;;9.05;;
52620;SDS011;38515;53.160;6.990;2023-03-14T06:45:24;19.50;;;8.60;;
52620;SDS011;38515;53.160;6.990;2023-03-14T06:47:50;12.40;;;8.10;;
52620;SDS011;38515;53.160;6.990;2023-03-14T06:50:15;10.98;;;8.65;;
52620;SDS011;38515;53.160;6.990;2023-03-14T06:52:42;15.57;;;8.60;;
52620;SDS011;38515;53.160;6.990;2023-03-14T06:55:13;9.32;;;6.50;;
52620;SDS011;38515;53.160;6.990;2023-03-14T06:57:40;12.80;;;8.38;;
52620;SDS011;38515;53.160;6.990;2023-03-14T07:00:07;11.18;;;8.48;;
52620;SDS011;38515;53.160;6.990;2023-03-14T07:02:33;15.30;;;12.18;;
52620;SDS011;38515;53.160;6.990;2023-03-14T07:04:59;9.02;;;4.35;;
52620;SDS011;38515;53.160;6.990;2023-03-14T07:07:26;31.20;;;29.65;;
52620;SDS011;38515;53.160;6.990;2023-03-14T07:09:52;11.57;;;3.85;;
52620;SDS011;38515;53.160;6.990;2023-03-14T07:12:18;8.68;;;4.60;;
52620;SDS011;38515;53.160;6.990;2023-03-14T07:14:44;7.10;;;3.95;;
52620;SDS011;38515;53.160;6.990;2023-03-14T07:17:13;10.05;;;9.43;;
52620;SDS011;38515;53.160;6.990;2023-03-14T07:19:39;11.70;;;4.15;;
52620;SDS011;38515;53.160;6.990;2023-03-14T07:22:05;8.70;;;4.28;;
52620;SDS011;38515;53.160;6.990;2023-03-14T07:24:30;9.88;;;4.22;;
52620;SDS011;38515;53.160;6.990;2023-03-14T07:26:58;17.15;;;5.50;;
52620;SDS011;38515;53.160;6.990;2023-03-14T07:29:24;11.40;;;4.35;;
52620;SDS011;38515;53.160;6.990;2023-03-14T07:31:50;11.80;;;5.20;;
52620;SDS011;38515;53.160;6.990;2023-03-14T07:34:16;11.85;;;10.93;;
52620;SDS011;38515;53.160;6.990;2023-03-14T07:36:42;9.38;;;8.63;;
52620;SDS011;38515;53.160;6.990;2023-03-14T07:39:08;11.70;;;11.10;;
52620;SDS011;38515;53.160;6.990;2023-03-14T07:41:34;11.63;;;5.10;;
52620;SDS011;38515;53.160;6.990;2023-03-14T07:44:00;26.23;;;24.77;;
52620;SDS011;38515;53.160;6.990;2023-03-14T07:46:26;18.45;;;4.80;;
52620;SDS011;38515;53.160;6.990;2023-03-14T07:48:52;9.07;;;4.47;;
52620;SDS011;38515;53.160;6.990;2023-03-14T07:51:18;22.63;;;21.48;;
52620;SDS011;38515;53.160;6.990;2023-03-14T07:53:44;19.65;;;18.80;;
52620;SDS011;38515;53.160;6.990;2023-03-14T07:56:10;7.60;;;4.43;;
52620;SDS011;38515;53.160;6.990;2023-03-14T07:58:36;6.57;;;3.35;;
52620;SDS011;38515;53.160;6.990;2023-03-14T08:01:02;24.95;;;23.60;;
52620;SDS011;38515;53.160;6.990;2023-03-14T08:03:28;25.50;;;24.40;;
52620;SDS011;38515;53.160;6.990;2023-03-14T08:05:54;24.90;;;24.00;;
52620;SDS011;38515;53.160;6.990;2023-03-14T08:08:20;17.08;;;16.05;;
52620;SDS011;38515;53.160;6.990;2023-03-14T08:10:46;8.90;;;8.60;;
52620;SDS011;38515;53.160;6.990;2023-03-14T08:13:12;7.43;;;7.13;;
52620;SDS011;38515;53.160;6.990;2023-03-14T08:15:38;7.72;;;7.22;;
52620;SDS011;38515;53.160;6.990;2023-03-14T08:18:04;8.48;;;7.97;;
52620;SDS011;38515;53.160;6.990;2023-03-14T08:20:31;8.80;;;8.40;;
52620;SDS011;38515;53.160;6.990;2023-03-14T08:22:57;14.23;;;13.52;;
52620;SDS011;38515;53.160;6.990;2023-03-14T08:25:24;24.33;;;23.33;;
52620;SDS011;38515;53.160;6.990;2023-03-14T08:27:51;23.90;;;23.02;;
52620;SDS011;38515;53.160;6.990;2023-03-14T08:30:18;6.38;;;3.17;;
52620;SDS011;38515;53.160;6.990;2023-03-14T08:32:45;53.95;;;52.05;;
52620;SDS011;38515;53.160;6.990;2023-03-14T08:35:11;60.25;;;57.50;;
52620;SDS011;38515;53.160;6.990;2023-03-14T08:37:37;65.43;;;62.80;;
52620;SDS011;38515;53.160;6.990;2023-03-14T08:40:04;57.17;;;54.88;;
52620;SDS011;38515;53.160;6.990;2023-03-14T08:42:39;60.90;;;58.78;;
52620;SDS011;38515;53.160;6.990;2023-03-14T08:45:06;60.08;;;57.97;;
52620;SDS011;38515;53.160;6.990;2023-03-14T08:47:33;63.20;;;60.85;;
52620;SDS011;38515;53.160;6.990;2023-03-14T08:49:59;63.70;;;61.45;;
52620;SDS011;38515;53.160;6.990;2023-03-14T08:52:25;56.25;;;54.25;;
52620;SDS011;38515;53.160;6.990;2023-03-14T08:54:54;65.05;;;62.03;;
52620;SDS011;38515;53.160;6.990;2023-03-14T08:57:20;71.18;;;68.47;;
52620;SDS011;38515;53.160;6.990;2023-03-14T08:59:47;4.05;;;3.75;;
52620;SDS011;38515;53.160;6.990;2023-03-14T09:02:13;59.17;;;57.08;;
52620;SDS011;38515;53.160;6.990;2023-03-14T09:04:39;41.20;;;39.70;;
52620;SDS011;38515;53.160;6.990;2023-03-14T09:07:09;55.28;;;53.28;;
52620;SDS011;38515;53.160;6.990;2023-03-14T09:09:36;33.78;;;32.38;;
52620;SDS011;38515;53.160;6.990;2023-03-14T09:12:02;28.40;;;27.30;;
52620;SDS011;38515;53.160;6.990;2023-03-14T09:14:28;10.85;;;4.45;;
52620;SDS011;38515;53.160;6.990;2023-03-14T09:16:54;21.40;;;16.42;;
52620;SDS011;38515;53.160;6.990;2023-03-14T09:19:20;16.67;;;15.25;;
52620;SDS011;38515;53.160;6.990;2023-03-14T09:21:46;71.25;;;68.30;;
52620;SDS011;38515;53.160;6.990;2023-03-14T09:24:12;66.78;;;63.30;;
52620;SDS011;38515;53.160;6.990;2023-03-14T09:26:38;43.38;;;41.38;;
52620;SDS011;38515;53.160;6.990;2023-03-14T09:29:04;17.42;;;6.05;;
52620;SDS011;38515;53.160;6.990;2023-03-14T09:31:30;15.52;;;14.38;;
52620;SDS011;38515;53.160;6.990;2023-03-14T09:33:56;9.82;;;9.02;;
52620;SDS011;38515;53.160;6.990;2023-03-14T09:36:25;28.08;;;12.57;;
52620;SDS011;38515;53.160;6.990;2023-03-14T09:38:53;21.23;;;5.88;;
52620;SDS011;38515;53.160;6.990;2023-03-14T09:44:30;10.68;;;10.00;;
52620;SDS011;38515;53.160;6.990;2023-03-14T09:47:01;11.48;;;9.65;;
52620;SDS011;38515;53.160;6.990;2023-03-14T09:49:35;11.45;;;10.57;;
52620;SDS011;38515;53.160;6.990;2023-03-14T09:52:10;25.50;;;10.88;;
52620;SDS011;38515;53.160;6.990;2023-03-14T09:54:50;12.38;;;11.68;;
52620;SDS011;38515;53.160;6.990;2023-03-14T09:57:22;19.77;;;6.95;;
52620;SDS011;38515;53.160;6.990;2023-03-14T09:59:51;15.13;;;13.85;;
52620;SDS011;38515;53.160;6.990;2023-03-14T10:02:24;16.30;;;12.00;;
52620;SDS011;38515;53.160;6.990;2023-03-14T10:04:54;19.00;;;7.05;;
52620;SDS011;38515;53.160;6.990;2023-03-14T10:07:27;12.38;;;11.45;;
52620;SDS011;38515;53.160;6.990;2023-03-14T10:09:54;14.68;;;12.52;;
52620;SDS011;38515;53.160;6.990;2023-03-14T10:12:28;13.80;;;12.50;;
52620;SDS011;38515;53.160;6.990;2023-03-14T10:15:02;13.52;;;12.50;;
52620;SDS011;38515;53.160;6.990;2023-03-14T10:17:40;19.33;;;14.45;;
52620;SDS011;38515;53.160;6.990;2023-03-14T10:20:25;15.88;;;7.30;;
52620;SDS011;38515;53.160;6.990;2023-03-14T10:23:01;17.33;;;14.15;;
52620;SDS011;38515;53.160;6.990;2023-03-14T10:25:31;13.98;;;10.43;;
52620;SDS011;38515;53.160;6.990;2023-03-14T10:27:58;12.40;;;11.43;;
52620;SDS011;38515;53.160;6.990;2023-03-14T10:36:03;18.77;;;17.23;;
52620;SDS011;38515;53.160;6.990;2023-03-14T10:38:42;23.88;;;8.63;;
52620;SDS011;38515;53.160;6.990;2023-03-14T10:41:25;18.90;;;17.27;;
52620;SDS011;38515;53.160;6.990;2023-03-14T10:43:58;16.63;;;15.30;;
52620;SDS011;38515;53.160;6.990;2023-03-14T10:46:26;17.30;;;15.85;;
52620;SDS011;38515;53.160;6.990;2023-03-14T10:48:55;34.88;;;24.08;;
52620;SDS011;38515;53.160;6.990;2023-03-14T10:51:26;13.75;;;7.97;;
52620;SDS011;38515;53.160;6.990;2023-03-14T10:56:39;16.65;;;6.22;;
52620;SDS011;38515;53.160;6.990;2023-03-14T10:59:12;18.33;;;9.00;;
52620;SDS011;38515;53.160;6.990;2023-03-14T11:04:28;7.95;;;7.40;;
52620;SDS011;38515;53.160;6.990;2023-03-14T11:20:52;16.70;;;6.13;;
52620;SDS011;38515;53.160;6.990;2023-03-14T11:28:58;8.88;;;8.48;;
52620;SDS011;38515;53.160;6.990;2023-03-14T11:31:47;18.92;;;10.07;;
52620;SDS011;38515;53.160;6.990;2023-03-14T11:37:14;10.05;;;6.60;;
52620;SDS011;38515;53.160;6.990;2023-03-14T11:39:59;8.25;;;7.75;;
52620;SDS011;38515;53.160;6.990;2023-03-14T11:42:35;16.98;;;4.63;;
52620;SDS011;38515;53.160;6.990;2023-03-14T11:45:03;11.52;;;4.72;;
52620;SDS011;38515;53.160;6.990;2023-03-14T11:47:32;13.52;;;5.00;;
52620;SDS011;38515;53.160;6.990;2023-03-14T11:50:19;21.10;;;5.60;;
52620;SDS011;38515;53.160;6.990;2023-03-14T11:52:53;8.05;;;4.60;;
52620;SDS011;38515;53.160;6.990;2023-03-14T12:00:23;7.85;;;7.55;;
52620;SDS011;38515;53.160;6.990;2023-03-14T12:02:57;9.88;;;6.30;;
52620;SDS011;38515;53.160;6.990;2023-03-14T12:08:19;9.00;;;4.10;;
52620;SDS011;38515;53.160;6.990;2023-03-14T12:10:55;10.55;;;9.75;;
52620;SDS011;38515;53.160;6.990;2023-03-14T12:13:49;5.70;;;4.30;;
52620;SDS011;38515;53.160;6.990;2023-03-14T12:18:49;10.85;;;4.43;;
52620;SDS011;38515;53.160;6.990;2023-03-14T12:21:17;12.27;;;4.55;;
52620;SDS011;38515;53.160;6.990;2023-03-14T12:23:51;7.75;;;7.35;;
52620;SDS011;38515;53.160;6.990;2023-03-14T12:26:20;13.18;;;4.53;;
52620;SDS011;38515;53.160;6.990;2023-03-14T12:39:17;18.40;;;4.57;;
52620;SDS011;38515;53.160;6.990;2023-03-14T12:42:09;4.75;;;3.50;;
52620;SDS011;38515;53.160;6.990;2023-03-14T12:44:43;15.80;;;5.70;;
52620;SDS011;38515;53.160;6.990;2023-03-14T12:49:49;12.25;;;5.03;;
52620;SDS011;38515;53.160;6.990;2023-03-14T12:52:21;8.23;;;5.63;;
52620;SDS011;38515;53.160;6.990;2023-03-14T13:02:46;25.45;;;6.00;;
52620;SDS011;38515;53.160;6.990;2023-03-14T13:05:23;5.07;;;4.68;;
52620;SDS011;38515;53.160;6.990;2023-03-14T13:10:29;10.20;;;4.63;;
52620;SDS011;38515;53.160;6.990;2023-03-14T13:12:57;11.60;;;4.88;;
52620;SDS011;38515;53.160;6.990;2023-03-14T13:15:31;13.98;;;4.53;;
52620;SDS011;38515;53.160;6.990;2023-03-14T13:18:02;5.03;;;4.50;;
52620;SDS011;38515;53.160;6.990;2023-03-14T13:20:59;7.90;;;7.18;;
52620;SDS011;38515;53.160;6.990;2023-03-14T13:23:28;6.88;;;6.18;;
52620;SDS011;38515;53.160;6.990;2023-03-14T13:25:56;11.80;;;4.57;;
52620;SDS011;38515;53.160;6.990;2023-03-14T13:28:24;8.30;;;7.68;;
52620;SDS011;38515;53.160;6.990;2023-03-14T13:30:54;12.95;;;4.40;;
52620;SDS011;38515;53.160;6.990;2023-03-14T13:33:23;6.90;;;6.50;;
52620;SDS011;38515;53.160;6.990;2023-03-14T13:35:54;9.23;;;4.47;;
52620;SDS011;38515;53.160;6.990;2023-03-14T13:38:24;9.25;;;8.65;;
52620;SDS011;38515;53.160;6.990;2023-03-14T13:40:56;9.15;;;8.50;;
52620;SDS011;38515;53.160;6.990;2023-03-14T13:44:01;11.40;;;4.78;;
52620;SDS011;38515;53.160;6.990;2023-03-14T13:46:22;8.55;;;6.15;;
52620;SDS011;38515;53.160;6.990;2023-03-14T13:48:52;10.50;;;6.95;;
52620;SDS011;38515;53.160;6.990;2023-03-14T13:51:23;5.75;;;5.28;;
52620;SDS011;38515;53.160;6.990;2023-03-14T13:53:53;6.60;;;6.10;;
52620;SDS011;38515;53.160;6.990;2023-03-14T13:56:25;6.05;;;5.43;;
52620;SDS011;38515;53.160;6.990;2023-03-14T13:58:58;9.40;;;3.80;;
52620;SDS011;38515;53.160;6.990;2023-03-14T14:01:25;7.20;;;4.13;;
52620;SDS011;38515;53.160;6.990;2023-03-14T14:03:53;5.00;;;4.47;;
52620;SDS011;38515;53.160;6.990;2023-03-14T14:06:34;10.00;;;3.50;;
52620;SDS011;38515;53.160;6.990;2023-03-14T14:09:04;4.03;;;3.70;;
52620;SDS011;38515;53.160;6.990;2023-03-14T14:11:38;3.85;;;3.55;;
52620;SDS011;38515;53.160;6.990;2023-03-14T14:14:08;6.72;;;5.82;;
52620;SDS011;38515;53.160;6.990;2023-03-14T14:16:43;8.13;;;4.05;;
52620;SDS011;38515;53.160;6.990;2023-03-14T14:19:10;9.02;;;8.45;;
52620;SDS011;38515;53.160;6.990;2023-03-14T14:21:37;7.93;;;7.50;;
52620;SDS011;38515;53.160;6.990;2023-03-14T14:24:03;15.25;;;14.18;;
52620;SDS011;38515;53.160;6.990;2023-03-14T14:26:30;8.50;;;4.70;;
52620;SDS011;38515;53.160;6.990;2023-03-14T14:29:01;6.75;;;4.25;;
52620;SDS011;38515;53.160;6.990;2023-03-14T14:31:29;10.60;;;9.90;;
52620;SDS011;38515;53.160;6.990;2023-03-14T14:33:56;12.82;;;11.98;;
52620;SDS011;38515;53.160;6.990;2023-03-14T14:38:50;10.80;;;9.48;;
52620;SDS011;38515;53.160;6.990;2023-03-14T14:41:26;15.60;;;14.52;;
52620;SDS011;38515;53.160;6.990;2023-03-14T14:43:56;8.00;;;4.25;;
52620;SDS011;38515;53.160;6.990;2023-03-14T14:46:25;3.38;;;3.17;;
52620;SDS011;38515;53.160;6.990;2023-03-14T14:48:58;5.60;;;5.05;;
52620;SDS011;38515;53.160;6.990;2023-03-14T14:51:34;10.93;;;3.85;;
52620;SDS011;38515;53.160;6.990;2023-03-14T14:54:18;9.27;;;5.00;;
52620;SDS011;38515;53.160;6.990;2023-03-14T14:57:01;10.02;;;9.23;;
52620;SDS011;38515;53.160;6.990;2023-03-14T14:59:28;9.70;;;4.38;;
52620;SDS011;38515;53.160;6.990;2023-03-14T15:02:01;9.38;;;4.45;;
52620;SDS011;38515;53.160;6.990;2023-03-14T15:04:29;10.40;;;4.65;;
52620;SDS011;38515;53.160;6.990;2023-03-14T15:06:56;7.43;;;7.03;;
52620;SDS011;38515;53.160;6.990;2023-03-14T15:09:22;5.80;;;4.85;;
52620;SDS011;38515;53.160;6.990;2023-03-14T15:11:49;13.32;;;5.30;;
52620;SDS011;38515;53.160;6.990;2023-03-14T15:14:15;8.00;;;5.43;;
52620;SDS011;38515;53.160;6.990;2023-03-14T15:16:41;6.63;;;6.22;;
52620;SDS011;38515;53.160;6.990;2023-03-14T15:19:20;10.70;;;5.53;;
52620;SDS011;38515;53.160;6.990;2023-03-14T15:21:49;6.68;;;6.10;;
52620;SDS011;38515;53.160;6.990;2023-03-14T15:24:16;10.88;;;4.10;;
52620;SDS011;38515;53.160;6.990;2023-03-14T15:26:42;6.82;;;6.13;;
52620;SDS011;38515;53.160;6.990;2023-03-14T15:29:10;6.47;;;6.00;;
52620;SDS011;38515;53.160;6.990;2023-03-14T15:31:50;15.45;;;6.70;;
52620;SDS011;38515;53.160;6.990;2023-03-14T15:34:16;8.80;;;5.68;;
52620;SDS011;38515;53.160;6.990;2023-03-14T15:36:42;4.40;;;3.97;;
52620;SDS011;38515;53.160;6.990;2023-03-14T15:39:09;9.15;;;4.90;;
52620;SDS011;38515;53.160;6.990;2023-03-14T15:41:38;5.18;;;4.88;;
52620;SDS011;38515;53.160;6.990;2023-03-14T15:44:03;5.63;;;5.30;;
52620;SDS011;38515;53.160;6.990;2023-03-14T15:46:29;5.57;;;5.28;;
52620;SDS011;38515;53.160;6.990;2023-03-14T15:48:55;9.93;;;6.43;;
52620;SDS011;38515;53.160;6.990;2023-03-14T15:51:21;12.02;;;11.18;;
52620;SDS011;38515;53.160;6.990;2023-03-14T15:53:47;14.77;;;13.98;;
52620;SDS011;38515;53.160;6.990;2023-03-14T15:56:15;5.90;;;5.63;;
52620;SDS011;38515;53.160;6.990;2023-03-14T15:58:42;8.10;;;3.60;;
52620;SDS011;38515;53.160;6.990;2023-03-14T16:01:12;8.32;;;3.60;;
52620;SDS011;38515;53.160;6.990;2023-03-14T16:03:39;14.15;;;13.52;;
52620;SDS011;38515;53.160;6.990;2023-03-14T16:06:05;13.57;;;12.98;;
52620;SDS011;38515;53.160;6.990;2023-03-14T16:08:31;9.57;;;3.53;;